DTTD

Remada Air Base Airport

Remada, Tunisia
METAR DTTD 251400Z 09006KT 010V160 9999 SCT026 30/13 Q1019
Observed Flight Rules
Sep-25 @ 14:00 UTC (an hour ago) Visual Flight Rules
Wind Visibility Clouds
90° at 6 knots 10,000+ meters
  • Scattered at 2,600' AGL
Temperatures Readings
Current 30°C / 86°F
Dewpoint 13°C / 55°F
Humidity 35%
Altimeter 30.09" Hg
Pressure 1019 hPa
Elevation 301
METAR DTTD 251400Z 09006KT 010V160 9999 SCT026 30/13 Q1019
Observed Flight Rules
Sep-25 @ 14:00 UTC
(an hour ago)
VFR
Wind Visibility
90° at 6 knots 10,000+ meters
Clouds
  • Scattered at 2,600' AGL
Temperature Dewpoint
30°C / 86°F 13°C / 55°F
Humidity Altimeter Pressure
35% 30.09" Hg 1019 hPa